sensor_id;sensor_type;location;lat;lon;timestamp;P1;durP1;ratioP1;P2;durP2;ratioP2
20491;SDS011;10404;51.468;6.762;2024-03-06T00:00:27;13.20;;;8.93;;
20491;SDS011;10404;51.468;6.762;2024-03-06T00:02:53;14.77;;;9.27;;
20491;SDS011;10404;51.468;6.762;2024-03-06T00:05:20;13.60;;;8.98;;
20491;SDS011;10404;51.468;6.762;2024-03-06T00:07:45;15.23;;;10.98;;
20491;SDS011;10404;51.468;6.762;2024-03-06T00:10:11;15.52;;;10.93;;
20491;SDS011;10404;51.468;6.762;2024-03-06T00:12:36;14.07;;;10.00;;
20491;SDS011;10404;51.468;6.762;2024-03-06T00:15:02;14.77;;;10.43;;
20491;SDS011;10404;51.468;6.762;2024-03-06T00:17:28;14.20;;;10.18;;
20491;SDS011;10404;51.468;6.762;2024-03-06T00:19:53;13.98;;;9.30;;
20491;SDS011;10404;51.468;6.762;2024-03-06T00:22:19;15.10;;;10.00;;
20491;SDS011;10404;51.468;6.762;2024-03-06T00:24:45;15.13;;;9.65;;
20491;SDS011;10404;51.468;6.762;2024-03-06T00:27:12;13.60;;;8.90;;
20491;SDS011;10404;51.468;6.762;2024-03-06T00:29:38;18.20;;;9.85;;
20491;SDS011;10404;51.468;6.762;2024-03-06T00:32:04;16.23;;;9.90;;
20491;SDS011;10404;51.468;6.762;2024-03-06T00:34:30;13.85;;;9.50;;
20491;SDS011;10404;51.468;6.762;2024-03-06T00:36:55;13.48;;;8.68;;
20491;SDS011;10404;51.468;6.762;2024-03-06T00:39:21;15.15;;;9.35;;
20491;SDS011;10404;51.468;6.762;2024-03-06T00:41:46;16.05;;;9.75;;
20491;SDS011;10404;51.468;6.762;2024-03-06T00:44:12;13.40;;;9.70;;
20491;SDS011;10404;51.468;6.762;2024-03-06T00:46:38;12.50;;;8.48;;
20491;SDS011;10404;51.468;6.762;2024-03-06T00:49:04;13.95;;;8.90;;
20491;SDS011;10404;51.468;6.762;2024-03-06T00:51:29;13.77;;;10.02;;
20491;SDS011;10404;51.468;6.762;2024-03-06T00:53:56;13.75;;;9.02;;
20491;SDS011;10404;51.468;6.762;2024-03-06T00:56:22;14.05;;;9.48;;
20491;SDS011;10404;51.468;6.762;2024-03-06T00:58:47;15.88;;;10.23;;
20491;SDS011;10404;51.468;6.762;2024-03-06T01:01:13;13.77;;;9.63;;
20491;SDS011;10404;51.468;6.762;2024-03-06T01:03:40;14.50;;;9.35;;
20491;SDS011;10404;51.468;6.762;2024-03-06T01:06:05;12.20;;;8.63;;
20491;SDS011;10404;51.468;6.762;2024-03-06T01:08:31;13.55;;;8.77;;
20491;SDS011;10404;51.468;6.762;2024-03-06T01:10:56;15.43;;;9.32;;
20491;SDS011;10404;51.468;6.762;2024-03-06T01:13:22;15.52;;;10.95;;
20491;SDS011;10404;51.468;6.762;2024-03-06T01:15:49;13.75;;;9.85;;
20491;SDS011;10404;51.468;6.762;2024-03-06T01:18:14;16.38;;;10.65;;
20491;SDS011;10404;51.468;6.762;2024-03-06T01:20:40;13.65;;;9.85;;
20491;SDS011;10404;51.468;6.762;2024-03-06T01:23:05;13.82;;;8.55;;
20491;SDS011;10404;51.468;6.762;2024-03-06T01:25:31;11.63;;;8.55;;
20491;SDS011;10404;51.468;6.762;2024-03-06T01:27:57;14.65;;;9.35;;
20491;SDS011;10404;51.468;6.762;2024-03-06T01:30:22;13.73;;;8.98;;
20491;SDS011;10404;51.468;6.762;2024-03-06T01:32:48;13.60;;;9.30;;
20491;SDS011;10404;51.468;6.762;2024-03-06T01:35:13;14.65;;;10.65;;
20491;SDS011;10404;51.468;6.762;2024-03-06T01:37:39;13.75;;;9.90;;
20491;SDS011;10404;51.468;6.762;2024-03-06T01:40:04;13.63;;;9.45;;
20491;SDS011;10404;51.468;6.762;2024-03-06T01:42:32;14.05;;;9.90;;
20491;SDS011;10404;51.468;6.762;2024-03-06T01:44:57;13.88;;;9.52;;
20491;SDS011;10404;51.468;6.762;2024-03-06T01:47:24;11.88;;;9.45;;
20491;SDS011;10404;51.468;6.762;2024-03-06T01:49:49;13.52;;;9.88;;
20491;SDS011;10404;51.468;6.762;2024-03-06T01:52:15;12.68;;;9.43;;
20491;SDS011;10404;51.468;6.762;2024-03-06T01:54:42;13.10;;;8.75;;
20491;SDS011;10404;51.468;6.762;2024-03-06T01:57:09;10.90;;;8.23;;
20491;SDS011;10404;51.468;6.762;2024-03-06T01:59:38;11.10;;;7.88;;
20491;SDS011;10404;51.468;6.762;2024-03-06T02:02:04;13.93;;;9.02;;
20491;SDS011;10404;51.468;6.762;2024-03-06T02:04:31;11.18;;;8.85;;
20491;SDS011;10404;51.468;6.762;2024-03-06T02:06:57;12.13;;;8.75;;
20491;SDS011;10404;51.468;6.762;2024-03-06T02:09:23;12.38;;;8.50;;
20491;SDS011;10404;51.468;6.762;2024-03-06T02:11:48;13.10;;;8.93;;
20491;SDS011;10404;51.468;6.762;2024-03-06T02:14:15;10.80;;;7.72;;
20491;SDS011;10404;51.468;6.762;2024-03-06T02:16:41;12.48;;;8.93;;
20491;SDS011;10404;51.468;6.762;2024-03-06T02:19:07;13.75;;;9.27;;
20491;SDS011;10404;51.468;6.762;2024-03-06T02:21:33;13.43;;;7.97;;
20491;SDS011;10404;51.468;6.762;2024-03-06T02:23:59;12.50;;;8.55;;
20491;SDS011;10404;51.468;6.762;2024-03-06T02:26:25;10.60;;;8.35;;
20491;SDS011;10404;51.468;6.762;2024-03-06T02:28:51;12.20;;;9.15;;
20491;SDS011;10404;51.468;6.762;2024-03-06T02:31:18;11.38;;;8.20;;
20491;SDS011;10404;51.468;6.762;2024-03-06T02:33:45;11.25;;;8.95;;
20491;SDS011;10404;51.468;6.762;2024-03-06T02:36:12;11.45;;;8.40;;
20491;SDS011;10404;51.468;6.762;2024-03-06T02:38:39;12.75;;;8.32;;
20491;SDS011;10404;51.468;6.762;2024-03-06T02:41:05;10.75;;;8.38;;
20491;SDS011;10404;51.468;6.762;2024-03-06T02:43:32;12.05;;;7.93;;
20491;SDS011;10404;51.468;6.762;2024-03-06T02:45:58;9.88;;;7.43;;
20491;SDS011;10404;51.468;6.762;2024-03-06T02:48:23;11.15;;;8.00;;
20491;SDS011;10404;51.468;6.762;2024-03-06T02:50:49;11.77;;;8.30;;
20491;SDS011;10404;51.468;6.762;2024-03-06T02:53:14;10.55;;;7.30;;
20491;SDS011;10404;51.468;6.762;2024-03-06T02:55:40;10.63;;;7.85;;
20491;SDS011;10404;51.468;6.762;2024-03-06T02:58:05;11.48;;;8.50;;
20491;SDS011;10404;51.468;6.762;2024-03-06T03:00:31;10.60;;;7.97;;
20491;SDS011;10404;51.468;6.762;2024-03-06T03:02:57;13.48;;;9.00;;
20491;SDS011;10404;51.468;6.762;2024-03-06T03:05:22;12.38;;;8.77;;
20491;SDS011;10404;51.468;6.762;2024-03-06T03:07:48;12.10;;;9.00;;
20491;SDS011;10404;51.468;6.762;2024-03-06T03:10:14;13.68;;;9.63;;
20491;SDS011;10404;51.468;6.762;2024-03-06T03:12:40;11.48;;;7.38;;
20491;SDS011;10404;51.468;6.762;2024-03-06T03:15:06;11.35;;;8.45;;
20491;SDS011;10404;51.468;6.762;2024-03-06T03:17:32;12.55;;;7.75;;
20491;SDS011;10404;51.468;6.762;2024-03-06T03:20:01;14.02;;;7.90;;
20491;SDS011;10404;51.468;6.762;2024-03-06T03:22:35;11.00;;;6.85;;
20491;SDS011;10404;51.468;6.762;2024-03-06T03:25:08;11.95;;;7.93;;
20491;SDS011;10404;51.468;6.762;2024-03-06T03:27:37;9.85;;;7.28;;
20491;SDS011;10404;51.468;6.762;2024-03-06T03:30:04;13.38;;;9.02;;
20491;SDS011;10404;51.468;6.762;2024-03-06T03:32:33;10.38;;;8.27;;
20491;SDS011;10404;51.468;6.762;2024-03-06T03:34:59;13.50;;;9.10;;
20491;SDS011;10404;51.468;6.762;2024-03-06T03:37:24;11.63;;;7.85;;
20491;SDS011;10404;51.468;6.762;2024-03-06T03:39:50;10.35;;;7.82;;
20491;SDS011;10404;51.468;6.762;2024-03-06T03:42:15;11.32;;;8.07;;
20491;SDS011;10404;51.468;6.762;2024-03-06T03:44:41;11.10;;;8.05;;
20491;SDS011;10404;51.468;6.762;2024-03-06T03:47:07;10.18;;;6.88;;
20491;SDS011;10404;51.468;6.762;2024-03-06T03:49:32;9.85;;;7.68;;
20491;SDS011;10404;51.468;6.762;2024-03-06T03:51:58;11.60;;;8.27;;
20491;SDS011;10404;51.468;6.762;2024-03-06T03:54:24;10.02;;;7.78;;
20491;SDS011;10404;51.468;6.762;2024-03-06T03:56:50;10.98;;;7.35;;
20491;SDS011;10404;51.468;6.762;2024-03-06T03:59:15;10.60;;;7.22;;
20491;SDS011;10404;51.468;6.762;2024-03-06T04:01:41;10.88;;;7.22;;
20491;SDS011;10404;51.468;6.762;2024-03-06T04:04:06;13.32;;;7.85;;
20491;SDS011;10404;51.468;6.762;2024-03-06T04:06:33;11.40;;;8.35;;
20491;SDS011;10404;51.468;6.762;2024-03-06T04:08:58;10.80;;;8.25;;
20491;SDS011;10404;51.468;6.762;2024-03-06T04:11:24;11.15;;;7.22;;
20491;SDS011;10404;51.468;6.762;2024-03-06T04:13:49;10.05;;;7.55;;
20491;SDS011;10404;51.468;6.762;2024-03-06T04:16:15;9.18;;;7.30;;
20491;SDS011;10404;51.468;6.762;2024-03-06T04:18:42;12.27;;;7.75;;
20491;SDS011;10404;51.468;6.762;2024-03-06T04:21:08;10.15;;;7.97;;
20491;SDS011;10404;51.468;6.762;2024-03-06T04:23:35;10.77;;;7.85;;
20491;SDS011;10404;51.468;6.762;2024-03-06T04:26:01;11.35;;;8.50;;
20491;SDS011;10404;51.468;6.762;2024-03-06T04:28:27;9.88;;;7.90;;
20491;SDS011;10404;51.468;6.762;2024-03-06T04:30:53;10.27;;;7.60;;
20491;SDS011;10404;51.468;6.762;2024-03-06T04:33:18;14.32;;;8.13;;
20491;SDS011;10404;51.468;6.762;2024-03-06T04:35:45;10.73;;;7.10;;
20491;SDS011;10404;51.468;6.762;2024-03-06T04:38:10;11.38;;;7.53;;
20491;SDS011;10404;51.468;6.762;2024-03-06T04:40:36;8.38;;;6.57;;
20491;SDS011;10404;51.468;6.762;2024-03-06T04:43:01;9.40;;;6.60;;
20491;SDS011;10404;51.468;6.762;2024-03-06T04:45:27;10.18;;;7.95;;
20491;SDS011;10404;51.468;6.762;2024-03-06T04:47:55;9.80;;;7.22;;
20491;SDS011;10404;51.468;6.762;2024-03-06T04:50:21;10.20;;;7.95;;
20491;SDS011;10404;51.468;6.762;2024-03-06T04:52:46;10.70;;;7.10;;
20491;SDS011;10404;51.468;6.762;2024-03-06T04:55:12;11.13;;;7.65;;
20491;SDS011;10404;51.468;6.762;2024-03-06T04:57:42;10.93;;;8.45;;
20491;SDS011;10404;51.468;6.762;2024-03-06T05:00:08;11.32;;;7.80;;
20491;SDS011;10404;51.468;6.762;2024-03-06T05:02:35;11.20;;;7.60;;
20491;SDS011;10404;51.468;6.762;2024-03-06T05:05:02;13.48;;;8.45;;
20491;SDS011;10404;51.468;6.762;2024-03-06T05:07:28;11.65;;;7.60;;
20491;SDS011;10404;51.468;6.762;2024-03-06T05:09:55;13.65;;;7.97;;
20491;SDS011;10404;51.468;6.762;2024-03-06T05:12:22;10.88;;;7.60;;
20491;SDS011;10404;51.468;6.762;2024-03-06T05:14:54;13.13;;;7.43;;
20491;SDS011;10404;51.468;6.762;2024-03-06T05:19:46;11.55;;;6.18;;
20491;SDS011;10404;51.468;6.762;2024-03-06T05:22:12;11.77;;;6.95;;
20491;SDS011;10404;51.468;6.762;2024-03-06T05:24:38;11.32;;;7.43;;
20491;SDS011;10404;51.468;6.762;2024-03-06T05:27:04;13.00;;;6.93;;
20491;SDS011;10404;51.468;6.762;2024-03-06T05:29:30;13.52;;;8.02;;
20491;SDS011;10404;51.468;6.762;2024-03-06T05:31:56;10.70;;;7.32;;
20491;SDS011;10404;51.468;6.762;2024-03-06T05:34:24;11.18;;;7.70;;
20491;SDS011;10404;51.468;6.762;2024-03-06T05:36:50;12.50;;;7.43;;
20491;SDS011;10404;51.468;6.762;2024-03-06T05:39:15;11.43;;;7.55;;
20491;SDS011;10404;51.468;6.762;2024-03-06T05:41:42;10.48;;;6.57;;
20491;SDS011;10404;51.468;6.762;2024-03-06T05:44:08;14.43;;;7.95;;
20491;SDS011;10404;51.468;6.762;2024-03-06T05:46:34;12.95;;;8.23;;
20491;SDS011;10404;51.468;6.762;2024-03-06T05:48:59;13.60;;;7.95;;
20491;SDS011;10404;51.468;6.762;2024-03-06T05:51:26;12.35;;;7.60;;
20491;SDS011;10404;51.468;6.762;2024-03-06T05:53:52;11.20;;;7.60;;
20491;SDS011;10404;51.468;6.762;2024-03-06T05:56:18;12.40;;;8.48;;
20491;SDS011;10404;51.468;6.762;2024-03-06T05:58:44;12.02;;;7.60;;
20491;SDS011;10404;51.468;6.762;2024-03-06T06:01:11;11.27;;;8.02;;
20491;SDS011;10404;51.468;6.762;2024-03-06T06:03:38;15.55;;;9.00;;
20491;SDS011;10404;51.468;6.762;2024-03-06T06:06:04;10.43;;;6.90;;
20491;SDS011;10404;51.468;6.762;2024-03-06T06:08:30;11.20;;;7.22;;
20491;SDS011;10404;51.468;6.762;2024-03-06T06:10:56;11.05;;;7.45;;
20491;SDS011;10404;51.468;6.762;2024-03-06T06:13:22;13.88;;;8.15;;
20491;SDS011;10404;51.468;6.762;2024-03-06T06:15:47;11.93;;;7.78;;
20491;SDS011;10404;51.468;6.762;2024-03-06T06:18:13;12.60;;;7.93;;
20491;SDS011;10404;51.468;6.762;2024-03-06T06:20:40;13.57;;;8.60;;
20491;SDS011;10404;51.468;6.762;2024-03-06T06:23:07;11.43;;;7.60;;
20491;SDS011;10404;51.468;6.762;2024-03-06T06:25:32;15.05;;;8.32;;
20491;SDS011;10404;51.468;6.762;2024-03-06T06:27:58;13.30;;;8.52;;
20491;SDS011;10404;51.468;6.762;2024-03-06T06:30:24;13.98;;;8.23;;
20491;SDS011;10404;51.468;6.762;2024-03-06T06:32:49;11.93;;;7.13;;
20491;SDS011;10404;51.468;6.762;2024-03-06T06:35:15;12.23;;;8.45;;
20491;SDS011;10404;51.468;6.762;2024-03-06T06:37:40;11.77;;;7.50;;
20491;SDS011;10404;51.468;6.762;2024-03-06T06:40:06;10.05;;;7.88;;
20491;SDS011;10404;51.468;6.762;2024-03-06T06:42:33;13.65;;;8.48;;
20491;SDS011;10404;51.468;6.762;2024-03-06T06:45:00;12.55;;;7.75;;
20491;SDS011;10404;51.468;6.762;2024-03-06T06:47:25;12.80;;;8.55;;
20491;SDS011;10404;51.468;6.762;2024-03-06T06:49:51;12.07;;;7.65;;
20491;SDS011;10404;51.468;6.762;2024-03-06T06:52:17;10.43;;;7.03;;
20491;SDS011;10404;51.468;6.762;2024-03-06T06:54:42;11.95;;;8.00;;
20491;SDS011;10404;51.468;6.762;2024-03-06T06:57:08;12.70;;;7.80;;
20491;SDS011;10404;51.468;6.762;2024-03-06T06:59:34;12.43;;;7.68;;
20491;SDS011;10404;51.468;6.762;2024-03-06T07:01:59;12.48;;;7.80;;
20491;SDS011;10404;51.468;6.762;2024-03-06T07:04:25;12.52;;;8.00;;
20491;SDS011;10404;51.468;6.762;2024-03-06T07:06:51;10.77;;;7.60;;
20491;SDS011;10404;51.468;6.762;2024-03-06T07:09:17;11.30;;;7.28;;
20491;SDS011;10404;51.468;6.762;2024-03-06T07:11:43;12.95;;;8.15;;
20491;SDS011;10404;51.468;6.762;2024-03-06T07:14:09;11.45;;;7.95;;
20491;SDS011;10404;51.468;6.762;2024-03-06T07:16:46;11.02;;;7.28;;
20491;SDS011;10404;51.468;6.762;2024-03-06T07:19:12;10.25;;;6.95;;
20491;SDS011;10404;51.468;6.762;2024-03-06T07:21:37;12.63;;;8.50;;
20491;SDS011;10404;51.468;6.762;2024-03-06T07:24:04;12.73;;;7.55;;
20491;SDS011;10404;51.468;6.762;2024-03-06T07:26:33;12.35;;;7.88;;
20491;SDS011;10404;51.468;6.762;2024-03-06T07:28:59;13.55;;;7.38;;
20491;SDS011;10404;51.468;6.762;2024-03-06T07:31:25;11.02;;;7.97;;
20491;SDS011;10404;51.468;6.762;2024-03-06T07:33:51;11.85;;;7.03;;
20491;SDS011;10404;51.468;6.762;2024-03-06T07:36:16;11.55;;;7.07;;
20491;SDS011;10404;51.468;6.762;2024-03-06T07:38:42;12.93;;;8.25;;
20491;SDS011;10404;51.468;6.762;2024-03-06T07:41:08;12.80;;;7.82;;
20491;SDS011;10404;51.468;6.762;2024-03-06T07:43:35;12.43;;;8.68;;
20491;SDS011;10404;51.468;6.762;2024-03-06T07:46:00;13.93;;;8.30;;
20491;SDS011;10404;51.468;6.762;2024-03-06T07:48:26;13.80;;;8.07;;
20491;SDS011;10404;51.468;6.762;2024-03-06T07:50:51;13.98;;;7.50;;
20491;SDS011;10404;51.468;6.762;2024-03-06T07:53:17;14.40;;;8.07;;
20491;SDS011;10404;51.468;6.762;2024-03-06T07:55:42;12.52;;;7.32;;
20491;SDS011;10404;51.468;6.762;2024-03-06T07:58:09;14.18;;;9.13;;
20491;SDS011;10404;51.468;6.762;2024-03-06T08:00:34;13.82;;;7.13;;
20491;SDS011;10404;51.468;6.762;2024-03-06T08:03:00;12.77;;;7.55;;
20491;SDS011;10404;51.468;6.762;2024-03-06T08:05:26;14.35;;;8.13;;
20491;SDS011;10404;51.468;6.762;2024-03-06T08:07:53;15.25;;;8.88;;
20491;SDS011;10404;51.468;6.762;2024-03-06T08:10:19;14.57;;;8.63;;
20491;SDS011;10404;51.468;6.762;2024-03-06T08:12:44;13.98;;;8.13;;
20491;SDS011;10404;51.468;6.762;2024-03-06T08:15:13;16.17;;;9.52;;
20491;SDS011;10404;51.468;6.762;2024-03-06T08:17:39;13.95;;;8.88;;
20491;SDS011;10404;51.468;6.762;2024-03-06T08:22:35;17.00;;;9.65;;
20491;SDS011;10404;51.468;6.762;2024-03-06T08:27:34;19.02;;;9.80;;
20491;SDS011;10404;51.468;6.762;2024-03-06T08:30:00;18.15;;;11.85;;
20491;SDS011;10404;51.468;6.762;2024-03-06T08:32:25;17.45;;;11.73;;
20491;SDS011;10404;51.468;6.762;2024-03-06T08:34:52;18.17;;;11.13;;
20491;SDS011;10404;51.468;6.762;2024-03-06T08:37:18;19.08;;;11.63;;
20491;SDS011;10404;51.468;6.762;2024-03-06T08:39:44;20.45;;;10.70;;
20491;SDS011;10404;51.468;6.762;2024-03-06T08:42:10;20.02;;;11.88;;
20491;SDS011;10404;51.468;6.762;2024-03-06T08:44:37;22.52;;;12.35;;
20491;SDS011;10404;51.468;6.762;2024-03-06T08:47:02;20.25;;;13.02;;
20491;SDS011;10404;51.468;6.762;2024-03-06T08:49:28;23.33;;;12.50;;
20491;SDS011;10404;51.468;6.762;2024-03-06T08:51:54;22.27;;;11.93;;
20491;SDS011;10404;51.468;6.762;2024-03-06T08:54:19;24.15;;;14.23;;
20491;SDS011;10404;51.468;6.762;2024-03-06T08:56:45;20.38;;;11.90;;
20491;SDS011;10404;51.468;6.762;2024-03-06T08:59:11;24.85;;;13.77;;
20491;SDS011;10404;51.468;6.762;2024-03-06T09:01:36;26.15;;;13.98;;
20491;SDS011;10404;51.468;6.762;2024-03-06T09:04:02;27.90;;;14.85;;
20491;SDS011;10404;51.468;6.762;2024-03-06T09:06:28;28.45;;;15.65;;
20491;SDS011;10404;51.468;6.762;2024-03-06T09:08:53;30.42;;;13.88;;
20491;SDS011;10404;51.468;6.762;2024-03-06T09:11:19;28.15;;;15.65;;
20491;SDS011;10404;51.468;6.762;2024-03-06T09:13:44;27.23;;;14.85;;
20491;SDS011;10404;51.468;6.762;2024-03-06T09:16:10;30.42;;;15.25;;
20491;SDS011;10404;51.468;6.762;2024-03-06T09:18:35;33.20;;;15.65;;
20491;SDS011;10404;51.468;6.762;2024-03-06T09:21:01;28.08;;;14.25;;
20491;SDS011;10404;51.468;6.762;2024-03-06T09:23:27;27.77;;;14.65;;
20491;SDS011;10404;51.468;6.762;2024-03-06T09:25:55;27.33;;;13.50;;
20491;SDS011;10404;51.468;6.762;2024-03-06T09:28:20;28.95;;;14.93;;
20491;SDS011;10404;51.468;6.762;2024-03-06T09:30:46;29.70;;;15.32;;
20491;SDS011;10404;51.468;6.762;2024-03-06T09:33:12;28.73;;;15.57;;
20491;SDS011;10404;51.468;6.762;2024-03-06T09:35:37;31.27;;;16.23;;
20491;SDS011;10404;51.468;6.762;2024-03-06T09:38:03;30.52;;;16.08;;
20491;SDS011;10404;51.468;6.762;2024-03-06T09:40:28;27.02;;;14.13;;
20491;SDS011;10404;51.468;6.762;2024-03-06T09:42:54;31.92;;;17.98;;
20491;SDS011;10404;51.468;6.762;2024-03-06T09:45:20;32.83;;;18.33;;
20491;SDS011;10404;51.468;6.762;2024-03-06T09:47:47;34.83;;;19.20;;
20491;SDS011;10404;51.468;6.762;2024-03-06T09:50:14;30.05;;;16.20;;
20491;SDS011;10404;51.468;6.762;2024-03-06T09:52:41;30.08;;;16.42;;
20491;SDS011;10404;51.468;6.762;2024-03-06T09:55:10;32.75;;;17.63;;
20491;SDS011;10404;51.468;6.762;2024-03-06T09:57:37;30.23;;;15.38;;
20491;SDS011;10404;51.468;6.762;2024-03-06T10:00:03;32.85;;;15.30;;
20491;SDS011;10404;51.468;6.762;2024-03-06T10:02:34;30.83;;;16.73;;
20491;SDS011;10404;51.468;6.762;2024-03-06T10:05:03;30.23;;;16.95;;
20491;SDS011;10404;51.468;6.762;2024-03-06T10:07:30;28.63;;;16.58;;
20491;SDS011;10404;51.468;6.762;2024-03-06T10:09:56;31.85;;;16.08;;
20491;SDS011;10404;51.468;6.762;2024-03-06T10:12:22;30.92;;;17.20;;
20491;SDS011;10404;51.468;6.762;2024-03-06T10:14:48;32.55;;;17.13;;
20491;SDS011;10404;51.468;6.762;2024-03-06T10:17:18;31.13;;;16.98;;
20491;SDS011;10404;51.468;6.762;2024-03-06T10:19:47;33.45;;;17.08;;
20491;SDS011;10404;51.468;6.762;2024-03-06T10:22:16;35.05;;;17.35;;
20491;SDS011;10404;51.468;6.762;2024-03-06T10:24:42;29.95;;;17.13;;
20491;SDS011;10404;51.468;6.762;2024-03-06T10:27:13;35.22;;;18.05;;
20491;SDS011;10404;51.468;6.762;2024-03-06T10:29:42;33.95;;;17.80;;
20491;SDS011;10404;51.468;6.762;2024-03-06T10:32:08;31.77;;;17.38;;
20491;SDS011;10404;51.468;6.762;2024-03-06T10:34:35;32.15;;;17.42;;
20491;SDS011;10404;51.468;6.762;2024-03-06T10:37:02;34.10;;;18.27;;
20491;SDS011;10404;51.468;6.762;2024-03-06T10:39:34;29.70;;;17.08;;
20491;SDS011;10404;51.468;6.762;2024-03-06T10:42:06;28.88;;;15.60;;
20491;SDS011;10404;51.468;6.762;2024-03-06T10:44:33;33.58;;;15.98;;
20491;SDS011;10404;51.468;6.762;2024-03-06T10:47:00;32.00;;;17.33;;
20491;SDS011;10404;51.468;6.762;2024-03-06T10:49:27;32.25;;;17.58;;
20491;SDS011;10404;51.468;6.762;2024-03-06T10:52:01;31.33;;;17.08;;
20491;SDS011;10404;51.468;6.762;2024-03-06T10:54:31;30.00;;;16.75;;
20491;SDS011;10404;51.468;6.762;2024-03-06T10:56:57;33.60;;;17.88;;
20491;SDS011;10404;51.468;6.762;2024-03-06T10:59:24;33.28;;;18.63;;
20491;SDS011;10404;51.468;6.762;2024-03-06T11:01:54;33.83;;;17.38;;
20491;SDS011;10404;51.468;6.762;2024-03-06T11:04:21;36.15;;;17.50;;
20491;SDS011;10404;51.468;6.762;2024-03-06T11:07:00;32.70;;;18.98;;
20491;SDS011;10404;51.468;6.762;2024-03-06T11:09:27;33.47;;;17.38;;
20491;SDS011;10404;51.468;6.762;2024-03-06T11:11:57;36.15;;;19.15;;
20491;SDS011;10404;51.468;6.762;2024-03-06T11:14:23;30.23;;;16.75;;
20491;SDS011;10404;51.468;6.762;2024-03-06T11:16:59;35.25;;;19.73;;
20491;SDS011;10404;51.468;6.762;2024-03-06T11:19:29;32.90;;;18.67;;
20491;SDS011;10404;51.468;6.762;2024-03-06T11:21:56;33.25;;;18.55;;
20491;SDS011;10404;51.468;6.762;2024-03-06T11:24:22;36.05;;;17.65;;
20491;SDS011;10404;51.468;6.762;2024-03-06T11:29:17;36.67;;;17.98;;
20491;SDS011;10404;51.468;6.762;2024-03-06T11:32:03;35.15;;;18.10;;
20491;SDS011;10404;51.468;6.762;2024-03-06T11:34:32;36.88;;;19.88;;
20491;SDS011;10404;51.468;6.762;2024-03-06T11:37:05;35.33;;;18.85;;
20491;SDS011;10404;51.468;6.762;2024-03-06T11:39:34;35.03;;;18.08;;
20491;SDS011;10404;51.468;6.762;2024-03-06T11:42:01;35.13;;;19.55;;
20491;SDS011;10404;51.468;6.762;2024-03-06T11:44:28;34.53;;;19.45;;
20491;SDS011;10404;51.468;6.762;2024-03-06T11:49:32;34.05;;;19.13;;
20491;SDS011;10404;51.468;6.762;2024-03-06T11:52:03;35.47;;;19.15;;
20491;SDS011;10404;51.468;6.762;2024-03-06T11:54:30;29.67;;;18.83;;
20491;SDS011;10404;51.468;6.762;2024-03-06T11:56:58;33.60;;;17.85;;
20491;SDS011;10404;51.468;6.762;2024-03-06T11:59:26;31.08;;;18.05;;
20491;SDS011;10404;51.468;6.762;2024-03-06T12:01:53;34.53;;;17.35;;
20491;SDS011;10404;51.468;6.762;2024-03-06T12:04:20;32.38;;;18.63;;
20491;SDS011;10404;51.468;6.762;2024-03-06T12:06:46;31.65;;;18.77;;
20491;SDS011;10404;51.468;6.762;2024-03-06T12:09:12;36.55;;;17.92;;
20491;SDS011;10404;51.468;6.762;2024-03-06T12:11:37;31.90;;;17.17;;
20491;SDS011;10404;51.468;6.762;2024-03-06T12:14:03;32.08;;;19.25;;
20491;SDS011;10404;51.468;6.762;2024-03-06T12:16:29;31.90;;;19.70;;
20491;SDS011;10404;51.468;6.762;2024-03-06T12:18:55;29.48;;;15.93;;
20491;SDS011;10404;51.468;6.762;2024-03-06T12:21:28;36.20;;;19.40;;
20491;SDS011;10404;51.468;6.762;2024-03-06T12:24:04;28.70;;;15.82;;
20491;SDS011;10404;51.468;6.762;2024-03-06T12:26:30;29.35;;;18.35;;
20491;SDS011;10404;51.468;6.762;2024-03-06T12:29:09;31.13;;;17.08;;
20491;SDS011;10404;51.468;6.762;2024-03-06T12:31:41;27.15;;;15.98;;
20491;SDS011;10404;51.468;6.762;2024-03-06T12:34:07;28.67;;;15.35;;
20491;SDS011;10404;51.468;6.762;2024-03-06T12:36:33;27.75;;;14.00;;
20491;SDS011;10404;51.468;6.762;2024-03-06T12:38:59;27.77;;;15.18;;
20491;SDS011;10404;51.468;6.762;2024-03-06T12:41:26;24.27;;;14.05;;
20491;SDS011;10404;51.468;6.762;2024-03-06T12:43:53;26.85;;;15.15;;
20491;SDS011;10404;51.468;6.762;2024-03-06T12:46:19;28.33;;;14.20;;
20491;SDS011;10404;51.468;6.762;2024-03-06T12:48:45;26.33;;;14.60;;
20491;SDS011;10404;51.468;6.762;2024-03-06T12:51:11;23.48;;;13.65;;
20491;SDS011;10404;51.468;6.762;2024-03-06T12:53:36;24.40;;;14.27;;
20491;SDS011;10404;51.468;6.762;2024-03-06T12:56:02;26.85;;;15.23;;
20491;SDS011;10404;51.468;6.762;2024-03-06T12:58:28;24.58;;;14.68;;
20491;SDS011;10404;51.468;6.762;2024-03-06T13:00:56;23.73;;;13.63;;
20491;SDS011;10404;51.468;6.762;2024-03-06T13:03:23;23.92;;;13.75;;
20491;SDS011;10404;51.468;6.762;2024-03-06T13:05:49;23.83;;;14.45;;
20491;SDS011;10404;51.468;6.762;2024-03-06T13:08:15;24.55;;;13.27;;
20491;SDS011;10404;51.468;6.762;2024-03-06T13:10:41;23.65;;;14.15;;
20491;SDS011;10404;51.468;6.762;2024-03-06T13:13:07;25.70;;;13.20;;
20491;SDS011;10404;51.468;6.762;2024-03-06T13:15:33;21.23;;;11.77;;
20491;SDS011;10404;51.468;6.762;2024-03-06T13:18:02;19.65;;;11.88;;
20491;SDS011;10404;51.468;6.762;2024-03-06T13:20:28;17.90;;;10.98;;
20491;SDS011;10404;51.468;6.762;2024-03-06T13:22:54;17.98;;;11.00;;
20491;SDS011;10404;51.468;6.762;2024-03-06T13:25:20;19.40;;;11.90;;
20491;SDS011;10404;51.468;6.762;2024-03-06T13:27:46;19.88;;;10.95;;
20491;SDS011;10404;51.468;6.762;2024-03-06T13:30:11;18.00;;;11.40;;
20491;SDS011;10404;51.468;6.762;2024-03-06T13:32:37;19.55;;;11.43;;
20491;SDS011;10404;51.468;6.762;2024-03-06T13:35:03;17.05;;;10.50;;
20491;SDS011;10404;51.468;6.762;2024-03-06T13:37:31;19.92;;;12.20;;
20491;SDS011;10404;51.468;6.762;2024-03-06T13:39:57;18.25;;;12.00;;
20491;SDS011;10404;51.468;6.762;2024-03-06T13:42:25;18.95;;;10.70;;
20491;SDS011;10404;51.468;6.762;2024-03-06T13:44:52;21.27;;;10.80;;
20491;SDS011;10404;51.468;6.762;2024-03-06T13:47:18;21.30;;;11.15;;
20491;SDS011;10404;51.468;6.762;2024-03-06T13:49:44;19.48;;;11.23;;
20491;SDS011;10404;51.468;6.762;2024-03-06T13:52:10;15.27;;;10.02;;
20491;SDS011;10404;51.468;6.762;2024-03-06T13:54:37;18.60;;;10.93;;
20491;SDS011;10404;51.468;6.762;2024-03-06T13:57:04;15.65;;;9.98;;
20491;SDS011;10404;51.468;6.762;2024-03-06T13:59:31;17.70;;;10.00;;
20491;SDS011;10404;51.468;6.762;2024-03-06T14:01:57;18.08;;;10.45;;
20491;SDS011;10404;51.468;6.762;2024-03-06T14:04:26;16.73;;;10.77;;
20491;SDS011;10404;51.468;6.762;2024-03-06T14:06:52;18.52;;;10.57;;
20491;SDS011;10404;51.468;6.762;2024-03-06T14:09:18;16.38;;;10.38;;
20491;SDS011;10404;51.468;6.762;2024-03-06T14:11:44;16.67;;;9.15;;
20491;SDS011;10404;51.468;6.762;2024-03-06T14:14:09;15.73;;;9.43;;
20491;SDS011;10404;51.468;6.762;2024-03-06T14:16:36;16.55;;;9.80;;
20491;SDS011;10404;51.468;6.762;2024-03-06T14:19:04;14.50;;;9.40;;
20491;SDS011;10404;51.468;6.762;2024-03-06T14:21:31;19.00;;;10.43;;
20491;SDS011;10404;51.468;6.762;2024-03-06T14:23:59;13.90;;;8.85;;
20491;SDS011;10404;51.468;6.762;2024-03-06T14:26:28;14.48;;;8.85;;
20491;SDS011;10404;51.468;6.762;2024-03-06T14:28:55;15.43;;;8.98;;
20491;SDS011;10404;51.468;6.762;2024-03-06T14:31:20;14.27;;;9.50;;
20491;SDS011;10404;51.468;6.762;2024-03-06T14:33:46;14.82;;;10.10;;
20491;SDS011;10404;51.468;6.762;2024-03-06T14:36:11;13.68;;;8.88;;